Weather reports worldwide

Advertisment
Madronera, Spain (8263): temperature & dewpoint: 01.08.2020 03:00:00 - 07.08.2020 03:00:00 (CEST)Madronera, Spain (8263): wind speed & gusts: 01.08.2020 03:00:00 - 07.08.2020 03:00:00 (CEST)Madronera, Spain (8263): wind direction: 01.08.2020 03:00:00 - 07.08.2020 03:00:00 (CEST)Madronera, Spain (8263): precipitation: 01.08.2020 03:00:00 - 07.08.2020 03:00:00 (CEST)
Date & Time tt [°C] td [°C] ff [km/h] ff [kn] fx [km/h] fx [kn] dd rr [mm]
07.08.2020 03:00:00 - - - - - - - -
07.08.2020 02:00:00 29,3 11,3 6 4 19 10 SW -
07.08.2020 01:00:00 29,9 11,4 10 5 23 12 SW 0,0
07.08.2020 00:00:00 31,1 11,0 9 5 17 9 SSW 0,0
06.08.2020 23:00:00 31,8 11,0 5 3 7 4 SSE 0,0
06.08.2020 22:00:00 33,6 11,4 4 2 10 5 SSE 0,0
06.08.2020 21:00:00 35,8 12,7 5 3 17 9 S 0,0
06.08.2020 20:00:00 37,3 12,6 9 5 23 13 S -
06.08.2020 19:00:00 38,3 13,6 13 7 29 16 SE 0,0
06.08.2020 18:00:00 38,7 13,9 9 5 28 15 SSE 0,0
06.08.2020 17:00:00 38,5 14,3 12 6 33 18 SSE 0,0
06.08.2020 16:00:00 37,5 14,1 13 7 37 20 S 0,0
06.08.2020 15:00:00 36,8 14,1 16 9 35 19 SSE 0,0
06.08.2020 14:00:00 36,3 14,3 15 8 36 20 SE -
06.08.2020 13:00:00 34,6 13,9 18 10 57 31 SSE 0,0
06.08.2020 12:00:00 33,3 14,3 19 10 35 19 SSE 0,0
06.08.2020 11:00:00 32,2 13,9 21 12 35 19 SE 0,0
06.08.2020 10:00:00 30,8 12,6 20 11 29 16 SE 0,0
06.08.2020 09:00:00 29,3 12,2 16 9 25 13 SE 0,0
06.08.2020 08:00:00 27,0 11,1 15 8 24 13 SE -
06.08.2020 07:00:00 26,8 10,9 15 8 23 13 SE 0,0
06.08.2020 06:00:00 27,3 10,9 16 8 26 14 SE 0,0
06.08.2020 05:00:00 27,7 10,4 9 5 15 8 SSE 0,0
06.08.2020 04:00:00 28,6 10,3 7 4 13 7 SSE 0,0
06.08.2020 03:00:00 28,6 10,3 6 4 16 8 SSE 0,0
06.08.2020 02:00:00 29,3 9,9 13 7 18 10 SE -
06.08.2020 01:00:00 30,2 10,6 1 1 4 2 ENE 0,0
06.08.2020 00:00:00 30,1 10,0 2 1 11 6 NE 0,0
05.08.2020 23:00:00 31,8 11,0 4 2 11 6 S 0,0
05.08.2020 22:00:00 32,5 10,5 6 3 13 7 S 0,0
05.08.2020 21:00:00 34,4 10,9 6 4 18 10 SSE 0,0
05.08.2020 20:00:00 37,2 11,9 4 2 21 11 SSW -
05.08.2020 19:00:00 37,2 12,6 5 3 17 9 SSW 0,0
05.08.2020 18:00:00 38,0 12,6 3 2 21 11 SW 0,0
05.08.2020 17:00:00 37,2 12,6 4 2 22 12 WNW 0,0
05.08.2020 16:00:00 37,1 12,5 7 4 19 11 W 0,0
05.08.2020 15:00:00 36,8 12,3 6 3 16 9 SE 0,0
05.08.2020 14:00:00 36,2 12,4 6 3 19 10 WSW -
05.08.2020 13:00:00 35,3 12,3 3 2 13 7 WSW 0,0
05.08.2020 12:00:00 34,2 12,0 3 2 10 5 NE 0,0
05.08.2020 11:00:00 32,2 11,3 4 2 9 5 SSW 0,0
05.08.2020 10:00:00 30,5 10,4 4 2 8 4 NW 0,0
05.08.2020 09:00:00 27,2 9,0 1 1 5 3 E 0,0
05.08.2020 08:00:00 23,0 6,2 1 1 3 2 E -
05.08.2020 07:00:00 22,4 5,3 1 0 7 4 ENE 0,0
05.08.2020 06:00:00 24,4 5,6 5 3 9 5 NW 0,0
05.08.2020 05:00:00 26,2 7,3 5 3 11 6 S 0,0
05.08.2020 04:00:00 25,0 6,2 1 1 6 3 WSW 0,0
05.08.2020 03:00:00 26,2 6,7 2 1 5 3 E 0,0
05.08.2020 02:00:00 26,4 7,0 3 2 9 5 NNW -
05.08.2020 01:00:00 26,6 6,5 1 1 4 2 ESE 0,0
05.08.2020 00:00:00 27,2 7,1 2 1 10 6 ENE 0,0
04.08.2020 23:00:00 29,2 7,7 8 5 15 8 N 0,0
04.08.2020 22:00:00 30,5 8,8 7 4 14 8 NNW 0,0
04.08.2020 21:00:00 32,8 9,6 9 5 21 12 NNW 0,0
04.08.2020 20:00:00 34,3 10,9 9 5 39 21 WNW -
04.08.2020 19:00:00 34,9 11,3 9 5 23 12 WNW 0,0
04.08.2020 18:00:00 35,3 12,3 6 3 19 10 N 0,0
04.08.2020 17:00:00 35,2 12,2 9 5 25 14 WNW 0,0
04.08.2020 16:00:00 34,4 12,1 8 4 27 14 WNW 0,0
04.08.2020 15:00:00 34,8 12,4 5 3 18 10 N 0,0
04.08.2020 14:00:00 33,7 12,1 8 4 19 10 WSW -
04.08.2020 13:00:00 32,0 11,8 6 4 19 10 NNE 0,0
04.08.2020 12:00:00 30,7 11,7 4 2 12 7 NNW 0,0
04.08.2020 11:00:00 28,7 10,9 6 4 14 7 N 0,0
04.08.2020 10:00:00 26,6 11,1 5 3 11 6 NNE 0,0
04.08.2020 09:00:00 24,2 12,2 2 1 5 3 ENE 0,0
04.08.2020 08:00:00 20,5 11,7 1 0 4 2 E -
04.08.2020 07:00:00 20,6 11,0 0 0 9 5 W 0,0
04.08.2020 06:00:00 20,9 9,4 3 2 11 6 WSW 0,0
04.08.2020 05:00:00 22,4 9,2 6 4 10 5 SSW 0,0
04.08.2020 04:00:00 22,5 7,4 5 3 10 5 S 0,0
04.08.2020 03:00:00 23,9 8,0 5 3 12 7 W 0,0
04.08.2020 02:00:00 24,8 7,8 6 3 10 6 W -
04.08.2020 01:00:00 25,6 8,1 5 3 12 7 WNW 0,0
04.08.2020 00:00:00 26,7 8,7 6 3 11 6 W 0,0
03.08.2020 23:00:00 27,7 9,6 6 3 11 6 WNW 0,0
03.08.2020 22:00:00 28,9 9,6 5 3 21 11 WNW 0,0
03.08.2020 21:00:00 30,7 10,0 13 7 24 13 WNW 0,0
03.08.2020 20:00:00 32,8 11,3 13 7 27 15 NW -
03.08.2020 19:00:00 33,2 11,7 11 6 27 14 W 0,0
03.08.2020 18:00:00 33,9 11,7 11 6 29 15 NW 0,0
03.08.2020 17:00:00 34,3 12,6 9 5 27 15 WNW 0,0
03.08.2020 16:00:00 33,2 12,2 12 7 26 14 WNW 0,0
03.08.2020 15:00:00 33,2 12,7 7 4 21 11 N 0,0
03.08.2020 14:00:00 32,2 12,4 5 3 19 10 WSW -
03.08.2020 13:00:00 30,6 12,0 10 5 22 12 NNW 0,0
03.08.2020 12:00:00 29,5 12,0 6 3 18 10 N 0,0
03.08.2020 11:00:00 27,1 10,8 6 3 14 8 N 0,0
03.08.2020 10:00:00 23,7 10,0 5 3 12 7 NW 0,0
03.08.2020 09:00:00 21,1 9,3 6 3 18 10 W 0,0
03.08.2020 08:00:00 20,7 8,9 8 4 17 9 W -
03.08.2020 07:00:00 21,0 9,3 8 4 20 11 W 0,0
03.08.2020 06:00:00 21,7 9,3 7 4 22 12 WSW 0,0
03.08.2020 05:00:00 22,1 9,9 10 6 28 15 WSW 0,0
03.08.2020 04:00:00 22,9 10,0 11 6 21 11 W 0,0
03.08.2020 03:00:00 23,7 9,7 9 5 23 12 W 0,0
03.08.2020 02:00:00 24,8 7,4 12 7 27 15 W -
03.08.2020 01:00:00 26,2 7,7 9 5 23 12 W 0,0
03.08.2020 00:00:00 27,1 8,5 12 6 21 11 W 0,0
02.08.2020 23:00:00 28,1 8,4 7 4 22 12 W 0,0
02.08.2020 22:00:00 29,4 7,8 11 6 26 14 WNW 0,0
02.08.2020 21:00:00 32,4 8,7 10 5 23 13 WSW 0,0
02.08.2020 20:00:00 33,3 9,3 7 4 25 13 W -
02.08.2020 19:00:00 34,7 9,8 8 4 26 14 W 0,0
02.08.2020 18:00:00 34,5 9,7 14 8 30 16 W 0,0
02.08.2020 17:00:00 34,3 10,9 11 6 27 15 W 0,0
02.08.2020 16:00:00 34,1 11,9 4 2 26 14 WSW 0,0
02.08.2020 15:00:00 33,0 11,0 12 6 29 15 NW 0,0
02.08.2020 14:00:00 31,5 12,3 5 3 23 12 WSW -
02.08.2020 13:00:00 29,4 12,3 13 7 27 15 WNW 0,0
02.08.2020 12:00:00 27,9 12,6 5 3 17 9 WNW 0,0
02.08.2020 11:00:00 25,2 11,8 4 2 11 6 WSW 0,0
02.08.2020 10:00:00 22,8 10,9 5 3 11 6 S 0,0
02.08.2020 09:00:00 20,8 10,0 3 2 9 5 W 0,0
02.08.2020 08:00:00 19,5 9,0 4 2 13 7 WSW -
02.08.2020 07:00:00 19,4 9,0 6 3 13 7 SSW 0,0
02.08.2020 06:00:00 20,4 9,7 6 3 16 9 WSW 0,0
02.08.2020 05:00:00 20,8 10,3 9 5 19 11 SSW 0,0
02.08.2020 04:00:00 21,7 10,8 6 3 13 7 SSW 0,0
02.08.2020 03:00:00 23,0 11,1 3 2 18 10 SSW 0,0
02.08.2020 02:00:00 24,7 10,5 8 4 26 14 WSW -
02.08.2020 01:00:00 26,8 9,2 14 8 26 14 W 0,0
02.08.2020 00:00:00 28,2 10,4 12 7 23 12 W 0,0
01.08.2020 23:00:00 29,9 10,9 10 5 19 11 W 0,0
01.08.2020 22:00:00 31,5 11,3 5 3 20 11 SW 0,0
01.08.2020 21:00:00 34,0 11,8 8 5 22 12 W 0,0
01.08.2020 20:00:00 35,0 11,4 13 7 24 13 W -
01.08.2020 19:00:00 35,9 11,6 10 5 31 17 WNW 0,0
01.08.2020 18:00:00 36,3 9,8 13 7 30 16 W 0,0
01.08.2020 17:00:00 36,8 10,2 9 5 27 15 W 0,0
01.08.2020 16:00:00 36,0 9,6 14 8 28 15 WNW 0,0
01.08.2020 15:00:00 35,0 10,0 10 5 24 13 WSW 0,0
01.08.2020 14:00:00 34,0 10,5 5 3 19 10 W -
01.08.2020 13:00:00 31,9 10,5 7 4 18 10 WNW 0,0
01.08.2020 12:00:00 30,6 10,0 4 2 10 6 NW 0,0
01.08.2020 11:00:00 28,5 8,8 4 2 11 6 S 0,0
01.08.2020 10:00:00 25,5 7,1 4 2 10 5 SSE 0,0
01.08.2020 09:00:00 23,8 6,1 5 3 11 6 W 0,0
01.08.2020 08:00:00 22,4 4,8 3 2 14 7 WSW -
01.08.2020 07:00:00 22,8 4,8 6 4 13 7 SW 0,0
01.08.2020 06:00:00 23,1 5,5 5 3 9 5 S 0,0
01.08.2020 05:00:00 24,1 6,4 6 3 10 5 S 0,0
01.08.2020 04:00:00 24,8 7,0 5 3 10 6 S 0,0
01.08.2020 03:00:00 25,4 7,0 5 3 11 6 S 0,0

tt = temperature
td = dewpoint
ff = wind speed
fx = gusts
dd = wind direction
rr = precipitation

Next stations